Time;durP1;ratioP1;P1;durP2;ratioP2;P2;SDS_P1;SDS_P2;PMS_P1;PMS_P2;Temp;Humidity;BMP_temperature;BMP_pressure;BME280_temperature;BME280_humidity;BME280_pressure;Samples;Min_cycle;Max_cycle;Signal;HPM_P1;HPM_P2
2023/04/20 00:02:25;;;;;;;9.15;4.60;;;;;;;;;;5031673;28;20025;-67
2023/04/20 00:04:50;;;;;;;12.05;5.57;;;;;;;;;;5031308;28;20018;-68
2023/04/20 00:07:15;;;;;;;10.75;5.40;;;;;;;;;;5023957;28;20475;-68
2023/04/20 00:09:41;;;;;;;10.98;5.40;;;;;;;;;;5030931;28;20013;-67
2023/04/20 00:12:06;;;;;;;9.70;5.93;;;;;;;;;;5031547;28;20487;-67
2023/04/20 00:14:31;;;;;;;8.73;5.40;;;;;;;;;;5029854;28;20021;-68
2023/04/20 00:16:56;;;;;;;10.77;6.15;;;;;;;;;;5031520;28;20114;-67
2023/04/20 00:19:22;;;;;;;9.80;5.43;;;;;;;;;;5031430;28;20021;-67
2023/04/20 00:21:48;;;;;;;9.18;4.90;;;;;;;;;;5031553;28;20095;-67
2023/04/20 00:24:13;;;;;;;10.27;6.10;;;;;;;;;;5029227;28;20101;-68
2023/04/20 00:26:38;;;;;;;10.00;5.47;;;;;;;;;;5024165;28;20473;-66
2023/04/20 00:29:04;;;;;;;10.25;5.60;;;;;;;;;;5029832;28;20022;-68
2023/04/20 00:31:30;;;;;;;9.27;4.93;;;;;;;;;;5022886;28;20025;-67
2023/04/20 00:33:55;;;;;;;9.75;5.28;;;;;;;;;;5029872;28;20103;-67
2023/04/20 00:36:20;;;;;;;13.13;6.43;;;;;;;;;;5026750;28;20026;-67
2023/04/20 00:38:46;;;;;;;10.50;6.05;;;;;;;;;;5029622;28;20029;-67
2023/04/20 00:41:11;;;;;;;10.65;5.88;;;;;;;;;;5024630;28;20037;-69
2023/04/20 00:43:36;;;;;;;8.02;5.10;;;;;;;;;;5028998;28;20026;-68
2023/04/20 00:46:02;;;;;;;11.35;6.32;;;;;;;;;;5023327;28;20026;-67
2023/04/20 00:48:28;;;;;;;8.75;5.20;;;;;;;;;;5029514;28;20018;-65
2023/04/20 00:50:53;;;;;;;10.05;5.93;;;;;;;;;;5031043;28;20104;-66
2023/04/20 00:53:19;;;;;;;9.65;5.97;;;;;;;;;;5030651;28;20044;-68
2023/04/20 00:55:44;;;;;;;11.52;6.07;;;;;;;;;;5030136;28;20022;-68
2023/04/20 00:58:10;;;;;;;11.88;6.53;;;;;;;;;;5026265;28;20039;-68
2023/04/20 01:00:36;;;;;;;8.93;5.90;;;;;;;;;;5030145;28;20029;-68
2023/04/20 01:03:01;;;;;;;12.32;6.63;;;;;;;;;;5030214;28;20053;-66
2023/04/20 01:05:27;;;;;;;8.55;5.18;;;;;;;;;;5030212;28;20018;-65
2023/04/20 01:07:52;;;;;;;9.63;5.80;;;;;;;;;;5023538;28;20101;-67
2023/04/20 01:10:17;;;;;;;9.68;5.70;;;;;;;;;;5029882;28;20051;-67
2023/04/20 01:12:42;;;;;;;9.15;5.35;;;;;;;;;;5030237;28;20497;-67
2023/04/20 01:15:08;;;;;;;10.05;5.78;;;;;;;;;;5028597;28;20529;-69
2023/04/20 01:17:36;;;;;;;9.25;5.57;;;;;;;;;;5030553;28;20029;-69
2023/04/20 01:20:02;;;;;;;10.18;5.32;;;;;;;;;;5030467;28;20036;-67
2023/04/20 01:22:27;;;;;;;11.35;6.13;;;;;;;;;;5030355;28;20029;-69
2023/04/20 01:24:53;;;;;;;10.18;5.60;;;;;;;;;;5029442;28;20483;-66
2023/04/20 01:27:18;;;;;;;11.48;5.40;;;;;;;;;;5028234;28;20136;-68
2023/04/20 01:29:44;;;;;;;9.07;5.10;;;;;;;;;;5021669;28;20018;-67
2023/04/20 01:32:09;;;;;;;9.65;4.82;;;;;;;;;;5027682;28;20010;-66
2023/04/20 01:34:35;;;;;;;10.15;5.75;;;;;;;;;;5029832;28;20013;-67
2023/04/20 01:37:01;;;;;;;13.90;6.10;;;;;;;;;;5029934;28;20072;-67
2023/04/20 01:39:26;;;;;;;9.18;5.50;;;;;;;;;;5029899;28;20049;-65
2023/04/20 01:41:51;;;;;;;10.75;5.75;;;;;;;;;;5025709;28;20020;-66
2023/04/20 01:44:17;;;;;;;13.05;5.13;;;;;;;;;;5029843;28;20040;-66
2023/04/20 01:46:42;;;;;;;8.57;4.85;;;;;;;;;;5029814;28;20096;-65
2023/04/20 01:49:07;;;;;;;7.70;4.35;;;;;;;;;;5030252;28;20056;-66
2023/04/20 01:51:33;;;;;;;9.05;5.20;;;;;;;;;;5029664;28;20026;-66
2023/04/20 01:53:58;;;;;;;8.63;4.75;;;;;;;;;;5029661;28;20033;-66
2023/04/20 01:56:24;;;;;;;8.90;4.80;;;;;;;;;;5021449;28;20376;-66
2023/04/20 01:58:49;;;;;;;8.23;4.80;;;;;;;;;;5029560;28;20529;-68
2023/04/20 02:01:14;;;;;;;9.80;5.97;;;;;;;;;;5029544;28;20017;-66
2023/04/20 02:03:40;;;;;;;9.68;5.45;;;;;;;;;;5028421;28;20022;-67
2023/04/20 02:06:05;;;;;;;9.27;5.15;;;;;;;;;;5024682;28;20022;-66
2023/04/20 02:08:31;;;;;;;9.10;5.03;;;;;;;;;;5026668;28;20103;-66
2023/04/20 02:10:56;;;;;;;10.70;4.57;;;;;;;;;;5028971;28;20143;-67
2023/04/20 02:13:22;;;;;;;7.45;4.70;;;;;;;;;;5024525;28;20049;-68
2023/04/20 02:15:47;;;;;;;8.30;5.30;;;;;;;;;;5022498;28;20099;-68
2023/04/20 02:18:14;;;;;;;8.70;4.57;;;;;;;;;;5029591;28;20148;-68
2023/04/20 02:20:40;;;;;;;8.52;4.88;;;;;;;;;;5029472;28;20021;-67
2023/04/20 02:23:05;;;;;;;10.80;5.90;;;;;;;;;;5029499;28;20043;-68
2023/04/20 02:25:30;;;;;;;9.98;5.07;;;;;;;;;;5028188;28;20024;-69
2023/04/20 02:27:56;;;;;;;8.18;4.85;;;;;;;;;;5029188;28;20065;-68
2023/04/20 02:30:21;;;;;;;12.15;5.70;;;;;;;;;;5029313;28;20536;-68
2023/04/20 02:32:46;;;;;;;9.30;4.95;;;;;;;;;;5029754;28;20017;-68
2023/04/20 02:35:11;;;;;;;9.93;4.90;;;;;;;;;;5028986;28;20044;-67
2023/04/20 02:37:37;;;;;;;7.50;4.75;;;;;;;;;;5011040;28;20021;-67
2023/04/20 02:40:03;;;;;;;10.98;5.00;;;;;;;;;;5023095;28;20555;-69
2023/04/20 02:42:29;;;;;;;10.40;5.45;;;;;;;;;;5027712;28;20026;-66
2023/04/20 02:44:54;;;;;;;9.05;4.93;;;;;;;;;;5029400;28;20025;-71
2023/04/20 02:47:20;;;;;;;10.32;5.63;;;;;;;;;;5027426;28;20423;-66
2023/04/20 02:49:46;;;;;;;10.38;5.10;;;;;;;;;;5024635;28;20040;-69
2023/04/20 02:52:11;;;;;;;10.32;5.72;;;;;;;;;;5029584;28;20024;-67
2023/04/20 02:54:36;;;;;;;9.18;5.07;;;;;;;;;;5024397;28;20493;-68
2023/04/20 02:57:02;;;;;;;11.95;5.50;;;;;;;;;;5025440;28;20028;-68
2023/04/20 02:59:27;;;;;;;12.05;6.05;;;;;;;;;;5026711;28;20021;-69
2023/04/20 03:01:53;;;;;;;9.73;6.03;;;;;;;;;;5026748;28;20014;-66
2023/04/20 03:04:19;;;;;;;8.77;5.43;;;;;;;;;;5027809;28;20033;-66
2023/04/20 03:06:44;;;;;;;11.48;5.25;;;;;;;;;;5011358;28;20014;-68
2023/04/20 03:09:10;;;;;;;11.18;6.15;;;;;;;;;;5025001;28;20096;-69
2023/04/20 03:11:35;;;;;;;12.20;6.40;;;;;;;;;;5029409;28;20067;-68
2023/04/20 03:14:00;;;;;;;9.13;5.63;;;;;;;;;;5021961;28;20026;-68
2023/04/20 03:16:25;;;;;;;9.27;5.70;;;;;;;;;;5026061;28;20418;-68
2023/04/20 03:18:51;;;;;;;10.95;5.47;;;;;;;;;;5028748;28;20060;-68
2023/04/20 03:21:16;;;;;;;11.07;5.72;;;;;;;;;;5029454;28;20028;-68
2023/04/20 03:23:41;;;;;;;9.48;5.53;;;;;;;;;;5032232;28;20539;-66
2023/04/20 03:26:07;;;;;;;9.98;5.25;;;;;;;;;;5047376;28;20570;-67
2023/04/20 03:28:32;;;;;;;10.27;5.80;;;;;;;;;;5031834;28;20022;-67
2023/04/20 03:30:58;;;;;;;12.93;5.65;;;;;;;;;;5032432;28;20024;-67
2023/04/20 03:33:23;;;;;;;10.07;5.72;;;;;;;;;;5032359;28;20105;-67
2023/04/20 03:35:48;;;;;;;12.70;5.90;;;;;;;;;;5031610;28;20021;-68
2023/04/20 03:38:13;;;;;;;11.23;5.82;;;;;;;;;;5031843;28;20029;-68
2023/04/20 03:40:39;;;;;;;10.50;5.07;;;;;;;;;;5031734;28;20036;-68
2023/04/20 03:43:05;;;;;;;11.90;5.20;;;;;;;;;;5032331;28;20032;-66
2023/04/20 03:45:30;;;;;;;8.45;5.40;;;;;;;;;;5026039;28;20053;-66
2023/04/20 03:47:55;;;;;;;10.27;5.82;;;;;;;;;;5026713;28;20041;-68
2023/04/20 03:50:20;;;;;;;10.98;4.60;;;;;;;;;;5032009;28;20021;-67
2023/04/20 03:52:46;;;;;;;8.60;4.82;;;;;;;;;;5031650;28;20162;-67
2023/04/20 03:55:11;;;;;;;7.60;4.43;;;;;;;;;;5031292;28;20040;-67
2023/04/20 03:57:37;;;;;;;8.18;4.45;;;;;;;;;;5031168;28;20033;-65
2023/04/20 04:00:03;;;;;;;7.15;3.63;;;;;;;;;;5031269;28;20548;-67
2023/04/20 04:02:29;;;;;;;6.82;3.70;;;;;;;;;;5028468;28;20049;-67
2023/04/20 04:04:55;;;;;;;5.57;3.40;;;;;;;;;;5031664;28;20021;-67
2023/04/20 04:07:20;;;;;;;5.75;2.75;;;;;;;;;;5024227;28;20017;-65
2023/04/20 04:09:45;;;;;;;5.55;3.10;;;;;;;;;;5029051;28;20052;-67
2023/04/20 04:12:10;;;;;;;5.88;3.03;;;;;;;;;;5031265;28;20053;-68
2023/04/20 04:14:36;;;;;;;4.25;2.45;;;;;;;;;;5031959;28;20148;-66
2023/04/20 04:17:01;;;;;;;6.03;3.45;;;;;;;;;;5030132;28;20079;-67
2023/04/20 04:19:26;;;;;;;8.25;2.80;;;;;;;;;;5029816;28;20067;-67
2023/04/20 04:21:51;;;;;;;4.80;2.40;;;;;;;;;;5031405;28;20036;-68
2023/04/20 04:24:17;;;;;;;5.47;2.72;;;;;;;;;;5028723;28;20101;-67
2023/04/20 04:26:42;;;;;;;5.57;2.67;;;;;;;;;;5023746;28;20040;-69
2023/04/20 04:29:09;;;;;;;9.48;3.03;;;;;;;;;;5022188;28;20014;-68
2023/04/20 04:31:34;;;;;;;5.65;2.78;;;;;;;;;;5023834;28;20032;-67
2023/04/20 04:33:59;;;;;;;6.40;2.50;;;;;;;;;;5031223;28;20021;-69
2023/04/20 04:36:25;;;;;;;4.15;2.45;;;;;;;;;;5031432;28;20043;-67
2023/04/20 04:38:51;;;;;;;4.40;2.13;;;;;;;;;;5021830;28;20022;-68
2023/04/20 04:41:17;;;;;;;6.68;2.92;;;;;;;;;;5024839;28;20151;-67
2023/04/20 04:43:42;;;;;;;4.80;2.50;;;;;;;;;;5024660;28;20032;-70
2023/04/20 04:46:12;;;;;;;4.57;2.83;;;;;;;;;;5029195;28;20036;-68
2023/04/20 04:48:39;;;;;;;5.20;3.03;;;;;;;;;;5022035;28;20483;-68
2023/04/20 04:51:04;;;;;;;4.53;2.60;;;;;;;;;;5024766;28;20028;-66
2023/04/20 04:53:30;;;;;;;5.30;2.95;;;;;;;;;;5030708;28;20465;-68
2023/04/20 04:55:55;;;;;;;6.47;3.25;;;;;;;;;;5030947;28;20082;-68
2023/04/20 04:58:20;;;;;;;6.43;3.58;;;;;;;;;;5030397;28;20082;-68
2023/04/20 05:00:45;;;;;;;8.25;4.18;;;;;;;;;;5030629;28;20021;-68
2023/04/20 05:03:11;;;;;;;7.85;4.15;;;;;;;;;;5031602;28;20025;-70
2023/04/20 05:05:36;;;;;;;7.72;4.07;;;;;;;;;;5015894;28;20018;-68
2023/04/20 05:08:02;;;;;;;7.57;4.30;;;;;;;;;;5030070;28;20033;-67
2023/04/20 05:10:27;;;;;;;8.98;4.25;;;;;;;;;;5029002;28;20026;-68
2023/04/20 05:12:52;;;;;;;10.93;4.18;;;;;;;;;;5030219;28;20099;-66
2023/04/20 05:15:18;;;;;;;11.77;5.15;;;;;;;;;;5030592;28;20025;-66
2023/04/20 05:17:43;;;;;;;9.73;5.13;;;;;;;;;;5030039;28;20493;-65
2023/04/20 05:20:10;;;;;;;10.05;5.32;;;;;;;;;;5026864;28;20134;-68
2023/04/20 05:22:35;;;;;;;14.65;6.22;;;;;;;;;;5024314;28;20317;-68
2023/04/20 05:25:00;;;;;;;9.85;5.53;;;;;;;;;;5020746;28;20053;-68
2023/04/20 05:27:26;;;;;;;11.20;5.90;;;;;;;;;;5026025;28;20075;-69
2023/04/20 05:29:51;;;;;;;15.00;7.95;;;;;;;;;;5028085;28;20014;-69
2023/04/20 05:32:16;;;;;;;16.63;7.70;;;;;;;;;;5030273;28;20017;-70
2023/04/20 05:34:42;;;;;;;12.05;6.60;;;;;;;;;;5029608;28;20021;-67
2023/04/20 05:37:08;;;;;;;14.35;7.97;;;;;;;;;;5016360;28;20022;-68
2023/04/20 05:39:33;;;;;;;13.40;7.75;;;;;;;;;;5043490;23;20052;-65
2023/04/20 05:41:58;;;;;;;14.10;8.13;;;;;;;;;;5019385;28;20037;-67
2023/04/20 05:44:24;;;;;;;10.77;6.88;;;;;;;;;;5014278;28;20026;-63
2023/04/20 05:46:49;;;;;;;14.85;7.80;;;;;;;;;;5029752;28;20093;-65
2023/04/20 05:49:14;;;;;;;11.18;7.05;;;;;;;;;;5023177;28;20403;-66
2023/04/20 05:51:39;;;;;;;12.95;7.45;;;;;;;;;;5028454;28;20013;-66
2023/04/20 05:54:05;;;;;;;15.20;7.97;;;;;;;;;;5029236;28;20044;-64
2023/04/20 05:56:30;;;;;;;12.05;7.55;;;;;;;;;;5029762;28;20030;-66
2023/04/20 05:58:56;;;;;;;15.43;8.52;;;;;;;;;;5027896;28;20025;-66
2023/04/20 06:01:21;;;;;;;15.70;8.95;;;;;;;;;;5030556;28;20025;-66
2023/04/20 06:03:47;;;;;;;11.75;7.28;;;;;;;;;;5029317;28;20363;-64
2023/04/20 06:06:13;;;;;;;11.43;8.18;;;;;;;;;;5028418;28;20017;-63
2023/04/20 06:08:38;;;;;;;12.80;7.75;;;;;;;;;;5021022;28;20083;-65
2023/04/20 06:11:04;;;;;;;12.38;7.15;;;;;;;;;;5027187;28;20029;-66
2023/04/20 06:13:29;;;;;;;11.23;6.97;;;;;;;;;;5029719;28;20053;-66
2023/04/20 06:15:54;;;;;;;14.98;7.38;;;;;;;;;;5029558;28;20544;-65
2023/04/20 06:18:20;;;;;;;13.98;8.07;;;;;;;;;;5030401;28;20104;-65
2023/04/20 06:20:45;;;;;;;14.27;8.02;;;;;;;;;;5029380;28;20021;-64
2023/04/20 06:23:11;;;;;;;14.30;8.50;;;;;;;;;;5027620;28;20105;-66
2023/04/20 06:25:36;;;;;;;14.10;7.78;;;;;;;;;;5022855;28;20097;-67
2023/04/20 06:28:02;;;;;;;13.93;9.05;;;;;;;;;;5029645;28;20030;-65
2023/04/20 06:30:27;;;;;;;14.68;8.80;;;;;;;;;;5029681;28;20025;-65
2023/04/20 06:32:52;;;;;;;12.73;7.13;;;;;;;;;;5024644;28;20021;-65
2023/04/20 06:35:17;;;;;;;12.55;7.72;;;;;;;;;;5028592;28;20021;-64
2023/04/20 06:37:43;;;;;;;11.68;7.10;;;;;;;;;;5027900;28;20501;-66
2023/04/20 06:40:08;;;;;;;17.15;8.15;;;;;;;;;;5029322;28;20072;-66
2023/04/20 06:42:33;;;;;;;14.43;8.82;;;;;;;;;;5029051;28;20036;-65
2023/04/20 06:44:59;;;;;;;13.40;8.80;;;;;;;;;;5029603;28;20060;-64
2023/04/20 06:47:30;;;;;;;12.85;7.88;;;;;;;;;;5029659;28;20092;-66
2023/04/20 06:49:55;;;;;;;14.75;8.43;;;;;;;;;;5029153;28;20025;-67
2023/04/20 06:52:21;;;;;;;17.15;9.00;;;;;;;;;;5029367;28;20017;-66
2023/04/20 06:54:46;;;;;;;11.38;7.63;;;;;;;;;;5038932;28;20026;-67
2023/04/20 06:57:11;;;;;;;12.43;7.90;;;;;;;;;;5026211;28;20022;-65
2023/04/20 06:59:37;;;;;;;12.00;8.02;;;;;;;;;;5031834;28;20097;-67
2023/04/20 07:02:02;;;;;;;12.63;7.45;;;;;;;;;;5031196;28;20018;-65
2023/04/20 07:04:27;;;;;;;10.27;6.97;;;;;;;;;;5032196;28;20036;-66
2023/04/20 07:06:52;;;;;;;12.02;7.60;;;;;;;;;;5022988;28;20052;-66
2023/04/20 07:09:18;;;;;;;12.45;7.38;;;;;;;;;;5029784;28;20475;-66
2023/04/20 07:11:43;;;;;;;15.10;7.22;;;;;;;;;;5032279;28;20021;-66
2023/04/20 07:14:08;;;;;;;12.15;7.90;;;;;;;;;;5032307;28;20450;-66
2023/04/20 07:16:33;;;;;;;10.40;6.72;;;;;;;;;;5032750;28;20535;-67
2023/04/20 07:18:59;;;;;;;12.30;7.95;;;;;;;;;;5032339;28;20021;-67
2023/04/20 07:21:24;;;;;;;12.48;7.78;;;;;;;;;;5032141;28;20034;-65
2023/04/20 07:23:49;;;;;;;17.50;8.20;;;;;;;;;;5027846;28;20017;-67
2023/04/20 07:26:14;;;;;;;17.30;7.18;;;;;;;;;;5023908;28;20071;-67
2023/04/20 07:28:40;;;;;;;13.45;7.95;;;;;;;;;;5027590;28;20471;-66
2023/04/20 07:31:06;;;;;;;12.15;7.40;;;;;;;;;;5024682;28;20105;-74
2023/04/20 07:33:31;;;;;;;14.73;8.18;;;;;;;;;;5033322;28;20022;-72
2023/04/20 07:35:56;;;;;;;12.88;7.50;;;;;;;;;;5031369;28;20130;-71
2023/04/20 07:38:22;;;;;;;12.10;7.85;;;;;;;;;;5022817;28;20132;-71
2023/04/20 07:40:47;;;;;;;12.00;7.72;;;;;;;;;;5026718;28;20025;-67
2023/04/20 07:43:12;;;;;;;16.00;7.75;;;;;;;;;;5030196;28;20039;-71
2023/04/20 07:45:40;;;;;;;11.65;6.75;;;;;;;;;;5021100;28;20017;-69
2023/04/20 07:48:08;;;;;;;11.30;7.30;;;;;;;;;;5029460;28;20103;-70
2023/04/20 07:50:33;;;;;;;15.43;8.05;;;;;;;;;;5024319;28;20021;-70
2023/04/20 07:52:58;;;;;;;12.63;7.50;;;;;;;;;;5031807;28;20105;-72
2023/04/20 07:55:23;;;;;;;12.55;7.35;;;;;;;;;;5031204;28;20032;-70
2023/04/20 07:57:49;;;;;;;13.65;7.63;;;;;;;;;;5030834;28;20018;-68
2023/04/20 08:00:14;;;;;;;11.57;7.82;;;;;;;;;;5031146;28;20078;-71
2023/04/20 08:02:40;;;;;;;15.07;8.20;;;;;;;;;;5026873;28;20033;-70
2023/04/20 08:05:05;;;;;;;11.70;7.30;;;;;;;;;;5030799;28;20025;-71
2023/04/20 08:07:31;;;;;;;15.30;8.18;;;;;;;;;;5030540;28;20025;-71
2023/04/20 08:09:56;;;;;;;13.00;8.73;;;;;;;;;;5031636;28;20136;-66
2023/04/20 08:12:21;;;;;;;18.42;8.20;;;;;;;;;;5031473;28;20022;-71
2023/04/20 08:14:47;;;;;;;15.35;8.30;;;;;;;;;;5031737;28;20013;-71
2023/04/20 08:17:12;;;;;;;14.80;7.88;;;;;;;;;;5032027;28;20447;-70
2023/04/20 08:19:37;;;;;;;12.43;7.03;;;;;;;;;;5030379;28;20299;-68
2023/04/20 08:22:04;;;;;;;11.93;7.40;;;;;;;;;;5029851;28;20100;-70
2023/04/20 08:24:29;;;;;;;11.50;7.18;;;;;;;;;;5030973;28;20021;-68
2023/04/20 08:26:54;;;;;;;11.82;7.07;;;;;;;;;;5030990;28;20028;-70
2023/04/20 08:29:20;;;;;;;11.82;6.57;;;;;;;;;;5024154;28;20014;-71
2023/04/20 08:31:45;;;;;;;14.00;8.00;;;;;;;;;;5030982;28;20081;-70
2023/04/20 08:34:10;;;;;;;14.65;7.60;;;;;;;;;;5031328;28;20036;-69
2023/04/20 08:36:36;;;;;;;11.10;6.30;;;;;;;;;;5029689;28;20022;-71
2023/04/20 08:39:11;;;;;;;11.43;6.57;;;;;;;;;;5031058;28;20083;-71
2023/04/20 08:41:37;;;;;;;11.65;6.47;;;;;;;;;;5031145;28;20040;-70
2023/04/20 08:44:02;;;;;;;10.35;6.75;;;;;;;;;;5030646;28;20101;-71
2023/04/20 08:46:28;;;;;;;11.18;6.53;;;;;;;;;;5029758;28;20079;-68
2023/04/20 08:48:56;;;;;;;10.18;6.35;;;;;;;;;;5030500;28;20050;-70
2023/04/20 08:51:23;;;;;;;8.93;6.07;;;;;;;;;;5030793;28;20022;-72
2023/04/20 08:53:48;;;;;;;10.77;5.75;;;;;;;;;;5029859;28;20025;-68
2023/04/20 08:56:13;;;;;;;11.02;6.35;;;;;;;;;;5030798;28;20075;-72
2023/04/20 08:58:41;;;;;;;14.30;6.88;;;;;;;;;;5030209;28;20609;-71
2023/04/20 09:01:07;;;;;;;12.97;7.53;;;;;;;;;;5031459;28;20561;-70
2023/04/20 09:03:33;;;;;;;11.48;7.18;;;;;;;;;;5031035;28;20044;-68
2023/04/20 09:05:58;;;;;;;13.07;7.53;;;;;;;;;;5030906;28;20463;-67
2023/04/20 09:08:37;;;;;;;11.00;6.85;;;;;;;;;;5033315;28;20414;-71
2023/04/20 09:11:02;;;;;;;;;;;;;;;;;;5035233;28;20489;-70
2023/04/20 09:13:28;;;;;;;15.02;7.60;;;;;;;;;;5032358;28;19909;-69
2023/04/20 09:15:53;;;;;;;11.38;7.60;;;;;;;;;;5030524;28;20616;-70
2023/04/20 09:18:18;;;;;;;14.75;8.18;;;;;;;;;;5030489;28;20659;-71
2023/04/20 09:20:45;;;;;;;12.90;7.95;;;;;;;;;;5026410;28;20021;-70
2023/04/20 09:23:14;;;;;;;13.43;8.73;;;;;;;;;;5026468;28;20060;-71
2023/04/20 09:25:41;;;;;;;12.57;8.48;;;;;;;;;;5027500;28;20049;-67
2023/04/20 09:28:07;;;;;;;15.35;8.98;;;;;;;;;;5027671;28;20091;-71
2023/04/20 09:30:36;;;;;;;13.00;8.25;;;;;;;;;;5019811;28;20069;-74
2023/04/20 09:33:02;;;;;;;;;;;;;;;;;;5025445;28;20029;-70
2023/04/20 09:35:27;;;;;;;14.75;7.75;;;;;;;;;;5026331;28;19955;-71
2023/04/20 09:37:53;;;;;;;15.57;8.52;;;;;;;;;;5027227;28;20290;-70
2023/04/20 09:40:18;;;;;;;13.20;7.38;;;;;;;;;;5030310;28;20033;-69
2023/04/20 09:42:44;;;;;;;13.65;7.15;;;;;;;;;;5020199;28;20593;-71
2023/04/20 09:45:12;;;;;;;12.25;7.65;;;;;;;;;;5022210;28;20017;-68
2023/04/20 09:47:40;;;;;;;14.15;8.00;;;;;;;;;;5023555;28;20387;-71
2023/04/20 09:50:06;;;;;;;13.15;7.50;;;;;;;;;;5025704;28;20064;-70
2023/04/20 09:52:32;;;;;;;12.85;7.53;;;;;;;;;;5029852;28;20558;-70
2023/04/20 09:54:57;;;;;;;13.40;7.18;;;;;;;;;;5030070;28;20137;-70
2023/04/20 09:57:24;;;;;;;12.38;7.25;;;;;;;;;;5029974;28;20390;-71
2023/04/20 09:59:50;;;;;;;13.57;6.75;;;;;;;;;;5022775;28;20026;-70
2023/04/20 10:02:15;;;;;;;11.65;7.03;;;;;;;;;;5029103;28;20435;-69
2023/04/20 10:04:56;;;;;;;12.50;6.60;;;;;;;;;;5028946;28;20025;-70
2023/04/20 10:07:26;;;;;;;10.15;6.80;;;;;;;;;;5029209;28;20040;-68
2023/04/20 10:10:08;;;;;;;12.73;6.50;;;;;;;;;;5027785;28;20027;-71
2023/04/20 10:12:35;;;;;;;10.13;6.10;;;;;;;;;;5010922;28;20156;-71
2023/04/20 10:15:01;;;;;;;10.50;6.30;;;;;;;;;;5009647;28;20033;-72
2023/04/20 10:17:30;;;;;;;10.77;6.65;;;;;;;;;;5009317;28;20526;-71
2023/04/20 10:19:55;;;;;;;;;;;;;;;;;;5005282;28;20098;-69
2023/04/20 10:22:33;;;;;;;12.90;6.20;;;;;;;;;;5004560;28;19913;-72
2023/04/20 10:25:12;;;;;;;15.93;5.80;;;;;;;;;;5004467;28;20030;-73
2023/04/20 10:27:38;;;;;;;9.63;5.55;;;;;;;;;;5026859;28;20025;-71
2023/04/20 10:30:09;;;;;;;8.88;4.93;;;;;;;;;;5024720;28;20017;-71
2023/04/20 10:32:35;;;;;;;10.57;5.22;;;;;;;;;;5032922;28;20021;-72
2023/04/20 10:35:05;;;;;;;9.68;5.30;;;;;;;;;;5032385;28;20013;-71
2023/04/20 10:37:31;;;;;;;14.90;5.15;;;;;;;;;;5032829;28;20029;-72
2023/04/20 10:39:56;;;;;;;8.70;4.80;;;;;;;;;;5029856;28;21293;-72
2023/04/20 10:42:21;;;;;;;10.20;5.05;;;;;;;;;;5022194;28;20100;-71
2023/04/20 10:44:50;;;;;;;8.90;5.07;;;;;;;;;;5028994;28;20081;-68
2023/04/20 10:47:17;;;;;;;11.68;5.60;;;;;;;;;;5030742;28;20029;-72
2023/04/20 10:49:42;;;;;;;9.68;5.40;;;;;;;;;;5033349;28;20033;-71
2023/04/20 10:52:08;;;;;;;14.35;5.75;;;;;;;;;;5029127;28;20029;-70
2023/04/20 10:54:37;;;;;;;16.33;6.03;;;;;;;;;;5027434;28;20032;-72
2023/04/20 10:57:03;;;;;;;16.02;6.15;;;;;;;;;;5033197;28;20033;-71
2023/04/20 10:59:29;;;;;;;12.40;5.28;;;;;;;;;;5032589;28;20426;-72
2023/04/20 11:01:54;;;;;;;10.95;5.80;;;;;;;;;;5027780;28;20075;-70
2023/04/20 11:04:28;;;;;;;14.25;6.47;;;;;;;;;;5028485;28;20084;-68
2023/04/20 11:06:54;;;;;;;15.93;6.10;;;;;;;;;;5028294;28;20418;-73
2023/04/20 11:09:21;;;;;;;11.55;6.20;;;;;;;;;;5030134;28;20467;-71
2023/04/20 11:11:57;;;;;;;9.93;6.07;;;;;;;;;;5025852;28;20018;-73
2023/04/20 11:14:22;;;;;;;13.65;5.82;;;;;;;;;;5031437;28;20032;-72
2023/04/20 11:16:51;;;;;;;11.50;6.35;;;;;;;;;;5027342;28;20017;-71
2023/04/20 11:19:21;;;;;;;11.57;6.88;;;;;;;;;;5023882;28;20018;-71
2023/04/20 11:21:46;;;;;;;10.15;6.85;;;;;;;;;;5024221;28;20037;-71
2023/04/20 11:24:21;;;;;;;13.35;7.00;;;;;;;;;;5021283;28;20056;-71
2023/04/20 11:26:50;;;;;;;13.10;7.32;;;;;;;;;;5026572;28;20021;-73
2023/04/20 11:29:31;;;;;;;14.48;6.38;;;;;;;;;;5031787;28;20025;-69
2023/04/20 11:31:57;;;;;;;10.75;6.28;;;;;;;;;;5026599;28;20030;-68
2023/04/20 11:34:22;;;;;;;11.88;6.90;;;;;;;;;;5023601;28;20036;-71
2023/04/20 11:36:49;;;;;;;13.13;7.05;;;;;;;;;;5029300;28;20021;-66
2023/04/20 11:39:21;;;;;;;10.85;6.68;;;;;;;;;;5027182;28;20025;-66
2023/04/20 11:41:46;;;;;;;12.55;7.68;;;;;;;;;;5029292;23;20050;-71
2023/04/20 11:44:13;;;;;;;14.93;7.65;;;;;;;;;;5005932;28;20083;-71
2023/04/20 11:46:39;;;;;;;14.02;7.00;;;;;;;;;;5005031;28;20041;-69
2023/04/20 11:49:04;;;;;;;15.85;7.15;;;;;;;;;;5002473;28;20294;-70
2023/04/20 11:51:30;;;;;;;12.02;7.22;;;;;;;;;;5002870;28;20010;-68
2023/04/20 11:53:56;;;;;;;13.65;7.80;;;;;;;;;;5017608;28;20105;-68
2023/04/20 11:56:21;;;;;;;13.13;9.00;;;;;;;;;;5001160;28;20116;-69
2023/04/20 11:58:46;;;;;;;15.15;8.30;;;;;;;;;;4989927;28;20029;-71
2023/04/20 12:01:12;;;;;;;15.45;7.85;;;;;;;;;;4990778;28;20066;-71
2023/04/20 12:03:37;;;;;;;15.25;7.53;;;;;;;;;;4993183;28;20034;-69
2023/04/20 12:06:02;;;;;;;13.18;7.85;;;;;;;;;;4991322;28;20407;-71
2023/04/20 12:08:27;;;;;;;16.63;7.75;;;;;;;;;;4991442;28;20104;-71
2023/04/20 12:10:53;;;;;;;12.15;8.15;;;;;;;;;;4987672;28;20022;-70
2023/04/20 12:13:18;;;;;;;11.93;7.18;;;;;;;;;;4992918;28;20066;-69
2023/04/20 12:15:43;;;;;;;13.63;7.50;;;;;;;;;;4991058;28;20030;-71
2023/04/20 12:18:09;;;;;;;13.10;7.65;;;;;;;;;;5015735;28;20084;-69
2023/04/20 12:20:34;;;;;;;18.13;7.75;;;;;;;;;;4987467;28;20391;-70
2023/04/20 12:23:01;;;;;;;15.70;7.70;;;;;;;;;;4990832;28;20065;-70
2023/04/20 12:25:26;;;;;;;14.70;8.50;;;;;;;;;;4989336;28;20030;-69
2023/04/20 12:27:51;;;;;;;18.95;8.07;;;;;;;;;;4993788;28;20095;-68
2023/04/20 12:30:19;;;;;;;14.25;8.02;;;;;;;;;;4992973;28;20108;-70
2023/04/20 12:32:44;;;;;;;15.02;9.57;;;;;;;;;;5011382;28;20626;-72
2023/04/20 12:35:09;;;;;;;17.27;9.55;;;;;;;;;;4992664;28;20026;-71
2023/04/20 12:37:34;;;;;;;15.85;8.88;;;;;;;;;;4987620;28;20413;-71
2023/04/20 12:40:00;;;;;;;26.98;9.52;;;;;;;;;;4990462;28;20689;-71
2023/04/20 12:42:25;;;;;;;17.20;10.63;;;;;;;;;;4988252;28;20049;-69
2023/04/20 12:44:55;;;;;;;21.50;10.30;;;;;;;;;;4988184;28;20029;-72
2023/04/20 12:47:21;;;;;;;15.82;9.50;;;;;;;;;;4990302;28;20050;-69
2023/04/20 12:49:46;;;;;;;18.05;10.23;;;;;;;;;;4988312;28;20500;-70
2023/04/20 12:52:11;;;;;;;20.38;11.00;;;;;;;;;;4988531;28;20046;-73
2023/04/20 12:54:37;;;;;;;17.95;10.85;;;;;;;;;;4991559;28;20115;-70
2023/04/20 12:57:02;;;;;;;19.88;10.90;;;;;;;;;;5000656;28;20034;-72
2023/04/20 12:59:27;;;;;;;19.65;11.38;;;;;;;;;;5001841;28;20018;-69
2023/04/20 13:01:53;;;;;;;19.70;10.90;;;;;;;;;;5006698;28;20380;-69
2023/04/20 13:04:18;;;;;;;17.98;10.50;;;;;;;;;;5000013;28;20054;-69
2023/04/20 13:06:43;;;;;;;20.50;11.95;;;;;;;;;;5009033;28;20018;-72
2023/04/20 13:09:09;;;;;;;17.13;10.73;;;;;;;;;;5008373;28;20045;-68
2023/04/20 13:11:34;;;;;;;21.10;11.38;;;;;;;;;;5009917;28;20025;-67
2023/04/20 13:13:59;;;;;;;18.42;11.55;;;;;;;;;;5009609;28;20419;-67
2023/04/20 13:16:25;;;;;;;21.65;12.10;;;;;;;;;;5010235;28;20133;-69
2023/04/20 13:18:50;;;;;;;22.95;12.02;;;;;;;;;;5010368;28;20045;-69
2023/04/20 13:21:15;;;;;;;20.58;11.50;;;;;;;;;;5009758;28;20470;-68
2023/04/20 13:23:40;;;;;;;19.90;12.45;;;;;;;;;;5009769;28;20028;-68
2023/04/20 13:26:06;;;;;;;22.02;11.40;;;;;;;;;;5009238;28;20018;-69
2023/04/20 13:28:34;;;;;;;20.60;12.00;;;;;;;;;;5008044;28;20476;-67
2023/04/20 13:31:00;;;;;;;20.85;11.98;;;;;;;;;;5007081;28;20373;-67
2023/04/20 13:33:25;;;;;;;22.20;11.90;;;;;;;;;;5002290;28;20032;-68
2023/04/20 13:35:50;;;;;;;19.70;11.95;;;;;;;;;;5008124;28;20036;-69
2023/04/20 13:38:16;;;;;;;21.70;12.02;;;;;;;;;;5008815;28;20026;-66
2023/04/20 13:40:43;;;;;;;21.83;11.60;;;;;;;;;;5009952;28;20117;-66
2023/04/20 13:43:08;;;;;;;18.70;11.50;;;;;;;;;;5009585;28;20029;-67
2023/04/20 13:45:33;;;;;;;19.42;11.00;;;;;;;;;;5009909;28;20109;-67
2023/04/20 13:47:59;;;;;;;24.95;12.70;;;;;;;;;;5010160;28;20049;-68
2023/04/20 13:50:24;;;;;;;18.23;11.23;;;;;;;;;;5010084;28;20018;-70
2023/04/20 13:52:49;;;;;;;18.17;10.57;;;;;;;;;;5009903;28;20018;-68
2023/04/20 13:55:15;;;;;;;18.77;11.93;;;;;;;;;;5009550;28;20023;-68
2023/04/20 13:57:41;;;;;;;19.35;11.27;;;;;;;;;;4996037;28;20025;-69
2023/04/20 14:00:06;;;;;;;19.92;11.43;;;;;;;;;;5001651;28;20014;-67
2023/04/20 14:02:32;;;;;;;18.77;11.43;;;;;;;;;;5009531;28;20458;-70
2023/04/20 14:04:57;;;;;;;23.25;12.93;;;;;;;;;;5007570;28;20057;-69
2023/04/20 14:07:23;;;;;;;22.08;11.45;;;;;;;;;;5007887;28;20022;-68
2023/04/20 14:09:48;;;;;;;21.92;11.32;;;;;;;;;;5009363;28;20014;-69
2023/04/20 14:12:13;;;;;;;23.42;12.18;;;;;;;;;;5008628;28;20022;-69
2023/04/20 14:14:39;;;;;;;25.42;12.82;;;;;;;;;;5008127;28;20087;-69
2023/04/20 14:17:04;;;;;;;22.23;12.02;;;;;;;;;;5008936;28;20636;-69
2023/04/20 14:19:31;;;;;;;25.92;13.65;;;;;;;;;;5008688;28;20022;-68
2023/04/20 14:21:56;;;;;;;23.50;13.32;;;;;;;;;;5009286;28;20096;-68
2023/04/20 14:24:21;;;;;;;24.77;12.40;;;;;;;;;;5009156;28;20371;-69
2023/04/20 14:26:49;;;;;;;28.15;14.38;;;;;;;;;;5009461;28;20080;-66